sensor_id;sensor_type;location;lat;lon;timestamp;pressure;altitude;pressure_sealevel;temperature;humidity
11682;BME280;5897;42.640;23.310;2023-02-20T00:00:47;94196.28;;;10.70;62.77
11682;BME280;5897;42.640;23.310;2023-02-20T00:03:14;94196.84;;;10.62;63.54
11682;BME280;5897;42.640;23.310;2023-02-20T00:05:41;94200.34;;;10.62;63.90
11682;BME280;5897;42.640;23.310;2023-02-20T00:08:08;94194.06;;;10.65;63.55
11682;BME280;5897;42.640;23.310;2023-02-20T00:10:35;94193.41;;;10.61;64.10
11682;BME280;5897;42.640;23.310;2023-02-20T00:13:02;94192.63;;;10.61;64.40
11682;BME280;5897;42.640;23.310;2023-02-20T00:15:28;94188.91;;;10.55;64.88
11682;BME280;5897;42.640;23.310;2023-02-20T00:17:57;94199.09;;;10.47;65.44
11682;BME280;5897;42.640;23.310;2023-02-20T00:20:25;94203.16;;;10.39;66.18
11682;BME280;5897;42.640;23.310;2023-02-20T00:22:54;94184.81;;;10.31;66.66
11682;BME280;5897;42.640;23.310;2023-02-20T00:25:22;94183.28;;;10.30;67.14
11682;BME280;5897;42.640;23.310;2023-02-20T00:27:49;94178.78;;;10.23;67.31
11682;BME280;5897;42.640;23.310;2023-02-20T00:30:17;94198.50;;;10.20;67.68
11682;BME280;5897;42.640;23.310;2023-02-20T00:32:45;94182.25;;;10.24;67.92
11682;BME280;5897;42.640;23.310;2023-02-20T00:35:15;94189.66;;;10.20;67.68
11682;BME280;5897;42.640;23.310;2023-02-20T00:37:42;94195.81;;;10.20;67.03
11682;BME280;5897;42.640;23.310;2023-02-20T00:40:09;94168.34;;;10.06;67.36
11682;BME280;5897;42.640;23.310;2023-02-20T00:42:36;94172.78;;;10.16;67.09
11682;BME280;5897;42.640;23.310;2023-02-20T00:45:04;94168.63;;;10.11;66.49
11682;BME280;5897;42.640;23.310;2023-02-20T00:47:31;94167.28;;;10.19;65.56
11682;BME280;5897;42.640;23.310;2023-02-20T00:49:58;94171.78;;;10.26;62.92
11682;BME280;5897;42.640;23.310;2023-02-20T00:52:26;94183.16;;;10.17;63.84
11682;BME280;5897;42.640;23.310;2023-02-20T00:54:53;94181.66;;;10.32;62.55
11682;BME280;5897;42.640;23.310;2023-02-20T00:57:19;94196.09;;;10.26;63.25
11682;BME280;5897;42.640;23.310;2023-02-20T00:59:46;94193.13;;;10.20;63.20
11682;BME280;5897;42.640;23.310;2023-02-20T01:02:13;94192.69;;;10.22;62.00
11682;BME280;5897;42.640;23.310;2023-02-20T01:04:41;94194.16;;;10.26;60.58
11682;BME280;5897;42.640;23.310;2023-02-20T01:07:08;94205.63;;;10.30;61.69
11682;BME280;5897;42.640;23.310;2023-02-20T01:09:36;94215.00;;;10.26;62.61
11682;BME280;5897;42.640;23.310;2023-02-20T01:12:03;94226.50;;;10.30;63.56
11682;BME280;5897;42.640;23.310;2023-02-20T01:14:30;94232.94;;;10.16;65.03
11682;BME280;5897;42.640;23.310;2023-02-20T01:16:57;94229.88;;;10.14;66.24
11682;BME280;5897;42.640;23.310;2023-02-20T01:19:24;94216.31;;;9.98;67.02
11682;BME280;5897;42.640;23.310;2023-02-20T01:21:51;94228.72;;;9.92;67.64
11682;BME280;5897;42.640;23.310;2023-02-20T01:24:18;94226.22;;;10.05;68.73
11682;BME280;5897;42.640;23.310;2023-02-20T01:26:47;94235.13;;;10.02;69.50
11682;BME280;5897;42.640;23.310;2023-02-20T01:29:15;94232.50;;;9.98;69.85
11682;BME280;5897;42.640;23.310;2023-02-20T01:31:46;94232.53;;;9.95;70.58
11682;BME280;5897;42.640;23.310;2023-02-20T01:34:13;94237.59;;;9.93;70.49
11682;BME280;5897;42.640;23.310;2023-02-20T01:36:45;94218.06;;;9.85;70.16
11682;BME280;5897;42.640;23.310;2023-02-20T01:39:11;94244.81;;;9.99;70.42
11682;BME280;5897;42.640;23.310;2023-02-20T01:41:38;94247.81;;;10.05;70.16
11682;BME280;5897;42.640;23.310;2023-02-20T01:44:15;94253.56;;;10.03;70.69
11682;BME280;5897;42.640;23.310;2023-02-20T01:46:49;94252.69;;;9.90;71.11
11682;BME280;5897;42.640;23.310;2023-02-20T01:49:21;94257.41;;;10.06;71.12
11682;BME280;5897;42.640;23.310;2023-02-20T01:51:52;94260.16;;;10.02;72.11
11682;BME280;5897;42.640;23.310;2023-02-20T01:54:22;94248.78;;;9.91;72.74
11682;BME280;5897;42.640;23.310;2023-02-20T01:56:51;94253.91;;;9.86;73.75
11682;BME280;5897;42.640;23.310;2023-02-20T01:59:21;94264.06;;;9.78;74.33
11682;BME280;5897;42.640;23.310;2023-02-20T02:01:49;94266.19;;;9.67;74.87
11682;BME280;5897;42.640;23.310;2023-02-20T02:04:16;94274.00;;;9.62;75.24
11682;BME280;5897;42.640;23.310;2023-02-20T02:06:45;94263.16;;;9.65;75.17
11682;BME280;5897;42.640;23.310;2023-02-20T02:09:21;94284.22;;;9.51;75.68
11682;BME280;5897;42.640;23.310;2023-02-20T02:11:50;94281.59;;;9.44;74.68
11682;BME280;5897;42.640;23.310;2023-02-20T02:14:17;94265.59;;;9.33;72.50
11682;BME280;5897;42.640;23.310;2023-02-20T02:16:54;94272.78;;;9.43;72.70
11682;BME280;5897;42.640;23.310;2023-02-20T02:19:49;94276.88;;;9.51;72.63
11682;BME280;5897;42.640;23.310;2023-02-20T02:22:43;94271.53;;;9.48;72.22
11682;BME280;5897;42.640;23.310;2023-02-20T02:25:27;94275.53;;;9.40;73.14
11682;BME280;5897;42.640;23.310;2023-02-20T02:31:26;94276.84;;;9.28;72.14
11682;BME280;5897;42.640;23.310;2023-02-20T02:34:17;94278.94;;;9.17;72.40
11682;BME280;5897;42.640;23.310;2023-02-20T02:37:00;94263.28;;;9.09;69.73
11682;BME280;5897;42.640;23.310;2023-02-20T02:39:36;94293.38;;;9.07;69.61
11682;BME280;5897;42.640;23.310;2023-02-20T02:42:14;94280.97;;;9.13;69.71
11682;BME280;5897;42.640;23.310;2023-02-20T02:44:47;94302.66;;;9.03;69.11
11682;BME280;5897;42.640;23.310;2023-02-20T02:47:22;94291.81;;;9.06;68.86
11682;BME280;5897;42.640;23.310;2023-02-20T02:49:54;94284.97;;;9.02;68.51
11682;BME280;5897;42.640;23.310;2023-02-20T02:52:25;94310.75;;;9.03;69.35
11682;BME280;5897;42.640;23.310;2023-02-20T02:55:15;94290.75;;;9.00;69.88
11682;BME280;5897;42.640;23.310;2023-02-20T02:57:43;94293.09;;;8.98;70.41
11682;BME280;5897;42.640;23.310;2023-02-20T03:00:13;94289.69;;;8.94;69.58
11682;BME280;5897;42.640;23.310;2023-02-20T03:02:46;94292.84;;;8.89;70.06
11682;BME280;5897;42.640;23.310;2023-02-20T03:05:18;94288.69;;;8.85;69.68
11682;BME280;5897;42.640;23.310;2023-02-20T03:07:50;94300.72;;;8.77;70.29
11682;BME280;5897;42.640;23.310;2023-02-20T03:10:21;94294.56;;;8.76;70.01
11682;BME280;5897;42.640;23.310;2023-02-20T03:13:00;94293.03;;;8.75;70.02
11682;BME280;5897;42.640;23.310;2023-02-20T03:15:30;94290.75;;;8.74;70.34
11682;BME280;5897;42.640;23.310;2023-02-20T03:18:15;94296.97;;;8.71;70.90
11682;BME280;5897;42.640;23.310;2023-02-20T03:20:46;94298.47;;;8.72;70.57
11682;BME280;5897;42.640;23.310;2023-02-20T03:23:18;94307.75;;;8.67;71.32
11682;BME280;5897;42.640;23.310;2023-02-20T03:25:49;94298.59;;;8.61;71.65
11682;BME280;5897;42.640;23.310;2023-02-20T03:28:20;94301.66;;;8.63;71.32
11682;BME280;5897;42.640;23.310;2023-02-20T03:30:52;94323.13;;;8.70;71.50
11682;BME280;5897;42.640;23.310;2023-02-20T03:33:24;94331.19;;;8.70;71.52
11682;BME280;5897;42.640;23.310;2023-02-20T03:36:17;94333.53;;;8.68;71.09
11682;BME280;5897;42.640;23.310;2023-02-20T03:39:07;94342.81;;;8.64;71.59
11682;BME280;5897;42.640;23.310;2023-02-20T03:41:53;94345.56;;;8.60;71.38
11682;BME280;5897;42.640;23.310;2023-02-20T03:44:39;94348.63;;;8.62;71.52
11682;BME280;5897;42.640;23.310;2023-02-20T03:47:08;94342.91;;;8.57;71.18
11682;BME280;5897;42.640;23.310;2023-02-20T03:49:38;94330.38;;;8.43;70.91
11682;BME280;5897;42.640;23.310;2023-02-20T03:52:06;94340.31;;;8.50;71.27
11682;BME280;5897;42.640;23.310;2023-02-20T03:54:35;94354.97;;;8.45;71.06
11682;BME280;5897;42.640;23.310;2023-02-20T03:57:04;94345.78;;;8.43;70.88
11682;BME280;5897;42.640;23.310;2023-02-20T03:59:36;94333.16;;;8.36;70.58
11682;BME280;5897;42.640;23.310;2023-02-20T04:02:07;94356.94;;;8.41;70.35
11682;BME280;5897;42.640;23.310;2023-02-20T04:04:39;94370.34;;;8.45;69.68
11682;BME280;5897;42.640;23.310;2023-02-20T04:07:13;94404.19;;;8.46;69.39
11682;BME280;5897;42.640;23.310;2023-02-20T04:09:44;94386.13;;;8.46;69.63
11682;BME280;5897;42.640;23.310;2023-02-20T04:12:16;94369.44;;;8.58;71.26
11682;BME280;5897;42.640;23.310;2023-02-20T04:14:45;94373.94;;;8.68;68.43
11682;BME280;5897;42.640;23.310;2023-02-20T04:17:15;94375.81;;;8.71;70.40
11682;BME280;5897;42.640;23.310;2023-02-20T04:19:45;94359.75;;;8.64;69.01
11682;BME280;5897;42.640;23.310;2023-02-20T04:22:16;94355.16;;;8.61;68.79
11682;BME280;5897;42.640;23.310;2023-02-20T04:24:48;94375.09;;;8.67;70.65
11682;BME280;5897;42.640;23.310;2023-02-20T04:27:18;94359.59;;;8.75;71.32
11682;BME280;5897;42.640;23.310;2023-02-20T04:29:45;94378.41;;;8.78;71.17
11682;BME280;5897;42.640;23.310;2023-02-20T04:32:12;94369.50;;;8.85;73.87
11682;BME280;5897;42.640;23.310;2023-02-20T04:34:39;94377.94;;;8.87;70.83
11682;BME280;5897;42.640;23.310;2023-02-20T04:37:08;94369.84;;;8.87;69.95
11682;BME280;5897;42.640;23.310;2023-02-20T04:39:36;94368.38;;;8.82;69.37
11682;BME280;5897;42.640;23.310;2023-02-20T04:42:04;94365.72;;;8.79;70.55
11682;BME280;5897;42.640;23.310;2023-02-20T04:44:31;94348.16;;;8.67;67.94
11682;BME280;5897;42.640;23.310;2023-02-20T04:46:59;94351.13;;;8.46;69.08
11682;BME280;5897;42.640;23.310;2023-02-20T04:49:27;94350.72;;;8.48;68.48
11682;BME280;5897;42.640;23.310;2023-02-20T04:51:54;94355.06;;;8.35;66.62
11682;BME280;5897;42.640;23.310;2023-02-20T04:54:21;94365.44;;;8.36;67.16
11682;BME280;5897;42.640;23.310;2023-02-20T04:56:48;94351.34;;;8.25;65.86
11682;BME280;5897;42.640;23.310;2023-02-20T04:59:16;94364.41;;;8.27;65.95
11682;BME280;5897;42.640;23.310;2023-02-20T05:01:43;94382.47;;;8.26;66.93
11682;BME280;5897;42.640;23.310;2023-02-20T05:04:12;94385.97;;;8.23;66.07
11682;BME280;5897;42.640;23.310;2023-02-20T05:06:41;94391.41;;;8.20;66.02
11682;BME280;5897;42.640;23.310;2023-02-20T05:09:07;94401.78;;;8.14;66.31
11682;BME280;5897;42.640;23.310;2023-02-20T05:11:35;94405.28;;;8.11;65.38
11682;BME280;5897;42.640;23.310;2023-02-20T05:14:02;94404.53;;;8.07;65.60
11682;BME280;5897;42.640;23.310;2023-02-20T05:16:30;94410.41;;;7.95;65.34
11682;BME280;5897;42.640;23.310;2023-02-20T05:18:57;94415.09;;;7.88;65.65
11682;BME280;5897;42.640;23.310;2023-02-20T05:21:25;94409.31;;;7.89;65.78
11682;BME280;5897;42.640;23.310;2023-02-20T05:24:09;94423.56;;;7.86;66.24
11682;BME280;5897;42.640;23.310;2023-02-20T05:26:36;94422.03;;;7.85;66.96
11682;BME280;5897;42.640;23.310;2023-02-20T05:29:03;94424.72;;;7.85;66.52
11682;BME280;5897;42.640;23.310;2023-02-20T05:31:31;94430.84;;;7.89;66.86
11682;BME280;5897;42.640;23.310;2023-02-20T05:33:58;94441.56;;;7.93;67.27
11682;BME280;5897;42.640;23.310;2023-02-20T05:36:25;94428.50;;;7.91;67.66
11682;BME280;5897;42.640;23.310;2023-02-20T05:38:51;94450.41;;;7.90;68.38
11682;BME280;5897;42.640;23.310;2023-02-20T05:41:18;94436.97;;;7.90;68.55
11682;BME280;5897;42.640;23.310;2023-02-20T05:43:45;94423.09;;;7.95;68.48
11682;BME280;5897;42.640;23.310;2023-02-20T05:46:13;94441.53;;;7.96;68.87
11682;BME280;5897;42.640;23.310;2023-02-20T05:48:41;94443.03;;;8.01;68.44
11682;BME280;5897;42.640;23.310;2023-02-20T05:51:08;94440.44;;;7.90;69.27
11682;BME280;5897;42.640;23.310;2023-02-20T05:53:44;94418.06;;;8.00;68.47
11682;BME280;5897;42.640;23.310;2023-02-20T05:56:11;94415.69;;;8.06;68.03
11682;BME280;5897;42.640;23.310;2023-02-20T05:58:38;94426.38;;;8.20;66.89
11682;BME280;5897;42.640;23.310;2023-02-20T06:01:04;94430.50;;;8.31;61.69
11682;BME280;5897;42.640;23.310;2023-02-20T06:03:31;94423.00;;;8.49;59.38
11682;BME280;5897;42.640;23.310;2023-02-20T06:05:59;94419.44;;;8.59;58.62
11682;BME280;5897;42.640;23.310;2023-02-20T06:08:26;94454.09;;;8.57;57.80
11682;BME280;5897;42.640;23.310;2023-02-20T06:10:53;94450.69;;;8.50;56.92
11682;BME280;5897;42.640;23.310;2023-02-20T06:13:20;94427.25;;;8.50;55.95
11682;BME280;5897;42.640;23.310;2023-02-20T06:15:47;94439.09;;;8.56;55.72
11682;BME280;5897;42.640;23.310;2023-02-20T06:18:13;94462.53;;;8.59;56.41
11682;BME280;5897;42.640;23.310;2023-02-20T06:20:40;94449.78;;;8.63;57.27
11682;BME280;5897;42.640;23.310;2023-02-20T06:23:08;94446.34;;;8.59;57.44
11682;BME280;5897;42.640;23.310;2023-02-20T06:25:35;94461.56;;;8.76;56.02
11682;BME280;5897;42.640;23.310;2023-02-20T06:28:02;94452.31;;;8.77;55.62
11682;BME280;5897;42.640;23.310;2023-02-20T06:30:29;94444.53;;;8.86;55.25
11682;BME280;5897;42.640;23.310;2023-02-20T06:32:56;94450.59;;;8.94;54.80
11682;BME280;5897;42.640;23.310;2023-02-20T06:35:22;94467.47;;;8.98;54.41
11682;BME280;5897;42.640;23.310;2023-02-20T06:37:49;94488.72;;;8.92;53.96
11682;BME280;5897;42.640;23.310;2023-02-20T06:40:17;94470.50;;;9.03;54.29
11682;BME280;5897;42.640;23.310;2023-02-20T06:42:44;94465.06;;;9.07;54.57
11682;BME280;5897;42.640;23.310;2023-02-20T06:45:11;94471.59;;;9.09;54.95
11682;BME280;5897;42.640;23.310;2023-02-20T06:47:38;94478.16;;;9.08;56.63
11682;BME280;5897;42.640;23.310;2023-02-20T06:50:05;94498.09;;;9.14;55.85
11682;BME280;5897;42.640;23.310;2023-02-20T06:52:32;94469.59;;;9.17;56.13
11682;BME280;5897;42.640;23.310;2023-02-20T06:54:59;94460.31;;;9.18;55.61
11682;BME280;5897;42.640;23.310;2023-02-20T06:57:27;94480.44;;;9.10;55.53
11682;BME280;5897;42.640;23.310;2023-02-20T06:59:53;94482.72;;;9.11;56.23
11682;BME280;5897;42.640;23.310;2023-02-20T07:02:20;94472.69;;;9.15;55.02
11682;BME280;5897;42.640;23.310;2023-02-20T07:04:47;94480.38;;;9.17;54.34
11682;BME280;5897;42.640;23.310;2023-02-20T07:07:15;94482.09;;;9.34;54.71
11682;BME280;5897;42.640;23.310;2023-02-20T07:09:41;94488.94;;;9.38;53.92
11682;BME280;5897;42.640;23.310;2023-02-20T07:12:08;94479.13;;;9.51;52.68
11682;BME280;5897;42.640;23.310;2023-02-20T07:14:36;94493.41;;;9.52;52.06
11682;BME280;5897;42.640;23.310;2023-02-20T07:17:04;94496.09;;;9.52;51.48
11682;BME280;5897;42.640;23.310;2023-02-20T07:19:30;94502.16;;;9.59;52.02
11682;BME280;5897;42.640;23.310;2023-02-20T07:21:57;94503.59;;;9.67;52.49
11682;BME280;5897;42.640;23.310;2023-02-20T07:24:24;94509.19;;;9.53;50.96
11682;BME280;5897;42.640;23.310;2023-02-20T07:26:50;94499.91;;;9.54;51.63
11682;BME280;5897;42.640;23.310;2023-02-20T07:29:17;94496.16;;;9.48;51.04
11682;BME280;5897;42.640;23.310;2023-02-20T07:31:45;94498.34;;;9.57;51.44
11682;BME280;5897;42.640;23.310;2023-02-20T07:34:12;94507.56;;;9.59;51.50
11682;BME280;5897;42.640;23.310;2023-02-20T07:36:40;94506.69;;;9.66;50.75
11682;BME280;5897;42.640;23.310;2023-02-20T07:39:07;94508.47;;;9.76;50.21
11682;BME280;5897;42.640;23.310;2023-02-20T07:41:33;94503.09;;;9.76;50.21
11682;BME280;5897;42.640;23.310;2023-02-20T07:44:01;94508.53;;;9.72;50.86
11682;BME280;5897;42.640;23.310;2023-02-20T07:46:28;94526.25;;;9.73;48.09
11682;BME280;5897;42.640;23.310;2023-02-20T07:49:00;94511.63;;;9.71;48.45
11682;BME280;5897;42.640;23.310;2023-02-20T07:51:26;94510.94;;;9.93;46.89
11682;BME280;5897;42.640;23.310;2023-02-20T07:53:53;94512.19;;;9.85;46.55
11682;BME280;5897;42.640;23.310;2023-02-20T07:56:21;94534.50;;;9.89;45.82
11682;BME280;5897;42.640;23.310;2023-02-20T07:58:48;94544.19;;;9.87;45.35
11682;BME280;5897;42.640;23.310;2023-02-20T08:01:16;94533.94;;;10.01;44.70
11682;BME280;5897;42.640;23.310;2023-02-20T08:03:43;94533.19;;;10.04;44.72
11682;BME280;5897;42.640;23.310;2023-02-20T08:06:12;94540.88;;;10.29;43.15
11682;BME280;5897;42.640;23.310;2023-02-20T08:08:39;94524.63;;;10.32;42.71
11682;BME280;5897;42.640;23.310;2023-02-20T08:11:06;94520.84;;;10.53;42.36
11682;BME280;5897;42.640;23.310;2023-02-20T08:13:32;94577.16;;;10.54;42.48
11682;BME280;5897;42.640;23.310;2023-02-20T08:15:59;94519.03;;;10.46;42.23
11682;BME280;5897;42.640;23.310;2023-02-20T08:18:26;94547.56;;;10.70;42.30
11682;BME280;5897;42.640;23.310;2023-02-20T08:20:53;94529.88;;;10.89;42.27
11682;BME280;5897;42.640;23.310;2023-02-20T08:23:22;94538.19;;;10.78;41.06
11682;BME280;5897;42.640;23.310;2023-02-20T08:25:50;94537.22;;;10.42;42.11
11682;BME280;5897;42.640;23.310;2023-02-20T08:28:17;94528.88;;;10.33;43.90
11682;BME280;5897;42.640;23.310;2023-02-20T08:30:44;94544.63;;;10.38;42.41
11682;BME280;5897;42.640;23.310;2023-02-20T08:33:11;94539.56;;;10.40;43.85
11682;BME280;5897;42.640;23.310;2023-02-20T08:35:39;94518.78;;;10.60;43.26
11682;BME280;5897;42.640;23.310;2023-02-20T08:38:21;94536.00;;;10.70;43.39
11682;BME280;5897;42.640;23.310;2023-02-20T08:40:49;94527.44;;;10.94;43.31
11682;BME280;5897;42.640;23.310;2023-02-20T08:43:16;94537.00;;;11.22;42.16
11682;BME280;5897;42.640;23.310;2023-02-20T08:45:43;94528.41;;;11.27;42.03
11682;BME280;5897;42.640;23.310;2023-02-20T08:48:09;94529.38;;;11.36;40.71
11682;BME280;5897;42.640;23.310;2023-02-20T08:50:36;94519.78;;;11.51;40.39
11682;BME280;5897;42.640;23.310;2023-02-20T08:53:03;94540.94;;;11.37;40.08
11682;BME280;5897;42.640;23.310;2023-02-20T08:55:30;94544.19;;;11.28;40.19
11682;BME280;5897;42.640;23.310;2023-02-20T08:57:58;94545.78;;;11.26;40.09
11682;BME280;5897;42.640;23.310;2023-02-20T09:00:25;94535.19;;;11.15;39.86
11682;BME280;5897;42.640;23.310;2023-02-20T09:02:51;94541.13;;;11.07;40.30
11682;BME280;5897;42.640;23.310;2023-02-20T09:05:18;94538.09;;;11.05;40.17
11682;BME280;5897;42.640;23.310;2023-02-20T09:07:45;94538.50;;;11.03;40.89
11682;BME280;5897;42.640;23.310;2023-02-20T09:10:12;94529.91;;;11.08;40.93
11682;BME280;5897;42.640;23.310;2023-02-20T09:12:39;94529.56;;;11.26;40.89
11682;BME280;5897;42.640;23.310;2023-02-20T09:15:08;94524.84;;;11.30;40.51
11682;BME280;5897;42.640;23.310;2023-02-20T09:17:35;94528.09;;;11.21;40.31
11682;BME280;5897;42.640;23.310;2023-02-20T09:20:01;94515.75;;;11.01;41.50
11682;BME280;5897;42.640;23.310;2023-02-20T09:22:29;94507.44;;;11.11;41.98
11682;BME280;5897;42.640;23.310;2023-02-20T09:24:56;94514.66;;;11.18;41.89
11682;BME280;5897;42.640;23.310;2023-02-20T09:27:23;94503.75;;;11.21;42.00
11682;BME280;5897;42.640;23.310;2023-02-20T09:29:49;94509.66;;;11.36;42.72
11682;BME280;5897;42.640;23.310;2023-02-20T09:32:18;94508.75;;;11.42;43.06
11682;BME280;5897;42.640;23.310;2023-02-20T09:34:44;94521.25;;;11.56;41.65
11682;BME280;5897;42.640;23.310;2023-02-20T09:37:11;94529.88;;;11.70;42.06
11682;BME280;5897;42.640;23.310;2023-02-20T09:39:39;94511.88;;;11.80;41.79
11682;BME280;5897;42.640;23.310;2023-02-20T09:42:15;94507.53;;;12.02;41.45
11682;BME280;5897;42.640;23.310;2023-02-20T09:44:55;94518.34;;;12.02;40.67
11682;BME280;5897;42.640;23.310;2023-02-20T09:47:35;94510.66;;;12.16;40.88
11682;BME280;5897;42.640;23.310;2023-02-20T09:50:09;94514.97;;;11.98;40.67
11682;BME280;5897;42.640;23.310;2023-02-20T09:52:39;94519.59;;;11.97;40.98
11682;BME280;5897;42.640;23.310;2023-02-20T09:55:11;94519.91;;;12.18;40.26
11682;BME280;5897;42.640;23.310;2023-02-20T09:57:47;94512.22;;;12.33;40.03
11682;BME280;5897;42.640;23.310;2023-02-20T10:00:20;94494.78;;;12.50;38.75
11682;BME280;5897;42.640;23.310;2023-02-20T10:02:57;94529.13;;;12.53;37.73
11682;BME280;5897;42.640;23.310;2023-02-20T10:05:31;94541.69;;;12.63;36.62
11682;BME280;5897;42.640;23.310;2023-02-20T10:07:58;94536.69;;;12.45;36.40
11682;BME280;5897;42.640;23.310;2023-02-20T10:10:27;94525.31;;;12.18;36.53
11682;BME280;5897;42.640;23.310;2023-02-20T10:13:02;94523.03;;;12.17;35.62
11682;BME280;5897;42.640;23.310;2023-02-20T10:15:38;94513.31;;;12.35;35.46
11682;BME280;5897;42.640;23.310;2023-02-20T10:18:18;94516.88;;;12.48;34.67
11682;BME280;5897;42.640;23.310;2023-02-20T10:20:56;94507.63;;;12.30;34.46
11682;BME280;5897;42.640;23.310;2023-02-20T10:23:34;94506.38;;;12.34;34.05
11682;BME280;5897;42.640;23.310;2023-02-20T10:26:05;94503.41;;;12.61;34.67
11682;BME280;5897;42.640;23.310;2023-02-20T10:28:34;94501.91;;;12.88;33.89
11682;BME280;5897;42.640;23.310;2023-02-20T10:31:06;94483.06;;;12.69;33.56
11682;BME280;5897;42.640;23.310;2023-02-20T10:33:41;94483.19;;;12.94;33.08
11682;BME280;5897;42.640;23.310;2023-02-20T10:36:14;94487.50;;;13.36;32.50
11682;BME280;5897;42.640;23.310;2023-02-20T10:38:46;94450.69;;;13.35;33.15
11682;BME280;5897;42.640;23.310;2023-02-20T10:41:18;94487.66;;;13.57;31.47
11682;BME280;5897;42.640;23.310;2023-02-20T10:43:51;94475.63;;;13.71;31.71
11682;BME280;5897;42.640;23.310;2023-02-20T10:46:26;94484.50;;;13.59;31.57
11682;BME280;5897;42.640;23.310;2023-02-20T10:48:58;94492.00;;;13.55;31.75
11682;BME280;5897;42.640;23.310;2023-02-20T10:51:29;94500.19;;;13.80;32.28
11682;BME280;5897;42.640;23.310;2023-02-20T10:54:01;94485.19;;;13.75;31.69
11682;BME280;5897;42.640;23.310;2023-02-20T10:56:33;94486.47;;;13.71;31.00
11682;BME280;5897;42.640;23.310;2023-02-20T10:59:05;94483.38;;;13.44;31.89
11682;BME280;5897;42.640;23.310;2023-02-20T11:01:36;94451.91;;;13.46;32.40
11682;BME280;5897;42.640;23.310;2023-02-20T11:04:09;94464.53;;;13.78;32.10
11682;BME280;5897;42.640;23.310;2023-02-20T11:06:39;94462.38;;;13.73;31.85
11682;BME280;5897;42.640;23.310;2023-02-20T11:09:08;94417.94;;;13.67;32.37
11682;BME280;5897;42.640;23.310;2023-02-20T11:11:37;94453.28;;;13.92;32.31
11682;BME280;5897;42.640;23.310;2023-02-20T11:14:11;94455.88;;;13.83;32.90
11682;BME280;5897;42.640;23.310;2023-02-20T11:16:43;94441.56;;;14.20;32.40
11682;BME280;5897;42.640;23.310;2023-02-20T11:19:17;94445.13;;;14.29;32.72
11682;BME280;5897;42.640;23.310;2023-02-20T11:21:46;94446.63;;;14.43;32.09
11682;BME280;5897;42.640;23.310;2023-02-20T11:24:24;94455.78;;;14.24;32.67
11682;BME280;5897;42.640;23.310;2023-02-20T11:26:56;94434.25;;;14.17;32.27
11682;BME280;5897;42.640;23.310;2023-02-20T11:29:28;94441.63;;;14.41;32.87
11682;BME280;5897;42.640;23.310;2023-02-20T11:32:23;94435.91;;;14.73;31.52
11682;BME280;5897;42.640;23.310;2023-02-20T11:35:20;94427.25;;;14.53;32.01
11682;BME280;5897;42.640;23.310;2023-02-20T11:37:49;94435.13;;;14.73;31.31
11682;BME280;5897;42.640;23.310;2023-02-20T11:40:21;94435.28;;;14.57;32.39
11682;BME280;5897;42.640;23.310;2023-02-20T11:42:49;94438.81;;;14.32;32.42
11682;BME280;5897;42.640;23.310;2023-02-20T11:45:21;94452.63;;;14.38;32.18
11682;BME280;5897;42.640;23.310;2023-02-20T11:48:05;94475.22;;;14.35;32.06
11682;BME280;5897;42.640;23.310;2023-02-20T11:50:39;94455.22;;;14.41;32.04
11682;BME280;5897;42.640;23.310;2023-02-20T11:53:17;94462.34;;;14.60;32.22
11682;BME280;5897;42.640;23.310;2023-02-20T11:55:44;94453.34;;;14.51;32.21
11682;BME280;5897;42.640;23.310;2023-02-20T11:58:20;94451.47;;;14.60;31.64
11682;BME280;5897;42.640;23.310;2023-02-20T12:00:50;94448.56;;;14.55;31.96
11682;BME280;5897;42.640;23.310;2023-02-20T12:03:21;94448.75;;;14.94;31.21
11682;BME280;5897;42.640;23.310;2023-02-20T12:05:51;94457.38;;;14.93;30.84
11682;BME280;5897;42.640;23.310;2023-02-20T12:08:46;94436.00;;;14.70;31.19
11682;BME280;5897;42.640;23.310;2023-02-20T12:11:15;94443.03;;;14.80;31.39
11682;BME280;5897;42.640;23.310;2023-02-20T12:13:43;94437.69;;;14.89;31.12
11682;BME280;5897;42.640;23.310;2023-02-20T12:16:29;94430.34;;;14.77;30.50
11682;BME280;5897;42.640;23.310;2023-02-20T12:19:04;94435.38;;;15.00;30.63
11682;BME280;5897;42.640;23.310;2023-02-20T12:21:47;94444.78;;;14.86;30.64
11682;BME280;5897;42.640;23.310;2023-02-20T12:24:29;94444.06;;;15.07;30.35
11682;BME280;5897;42.640;23.310;2023-02-20T12:27:01;94444.09;;;15.16;30.19
11682;BME280;5897;42.640;23.310;2023-02-20T12:29:45;94441.13;;;15.02;30.67
11682;BME280;5897;42.640;23.310;2023-02-20T12:32:30;94447.50;;;15.08;29.96
11682;BME280;5897;42.640;23.310;2023-02-20T12:35:11;94454.31;;;14.91;30.53
11682;BME280;5897;42.640;23.310;2023-02-20T12:37:54;94454.50;;;15.30;30.27
11682;BME280;5897;42.640;23.310;2023-02-20T12:40:36;94464.84;;;15.35;30.56
11682;BME280;5897;42.640;23.310;2023-02-20T12:43:19;94463.94;;;15.38;29.86
11682;BME280;5897;42.640;23.310;2023-02-20T12:45:53;94455.44;;;15.15;30.67
11682;BME280;5897;42.640;23.310;2023-02-20T12:48:32;94449.50;;;15.07;30.71
11682;BME280;5897;42.640;23.310;2023-02-20T12:51:13;94440.75;;;15.12;30.94
11682;BME280;5897;42.640;23.310;2023-02-20T12:53:55;94441.09;;;14.80;31.28
11682;BME280;5897;42.640;23.310;2023-02-20T12:56:31;94433.78;;;14.90;31.32
11682;BME280;5897;42.640;23.310;2023-02-20T12:59:10;94439.00;;;15.18;31.22
11682;BME280;5897;42.640;23.310;2023-02-20T13:01:43;94416.53;;;15.48;30.37
11682;BME280;5897;42.640;23.310;2023-02-20T13:04:19;94430.41;;;15.41;30.43
11682;BME280;5897;42.640;23.310;2023-02-20T13:06:55;94430.50;;;15.38;30.65
11682;BME280;5897;42.640;23.310;2023-02-20T13:09:27;94439.06;;;15.49;30.34
11682;BME280;5897;42.640;23.310;2023-02-20T13:12:01;94454.53;;;15.52;30.55
11682;BME280;5897;42.640;23.310;2023-02-20T13:14:35;94462.66;;;15.30;30.60
11682;BME280;5897;42.640;23.310;2023-02-20T13:17:14;94450.25;;;15.72;30.36
11682;BME280;5897;42.640;23.310;2023-02-20T13:19:49;94455.41;;;15.49;30.44
11682;BME280;5897;42.640;23.310;2023-02-20T13:22:20;94438.88;;;15.43;30.53
11682;BME280;5897;42.640;23.310;2023-02-20T13:24:48;94445.81;;;15.66;30.38
11682;BME280;5897;42.640;23.310;2023-02-20T13:27:27;94445.09;;;14.88;31.78